Terminal Aerodrome Forecast
Issued by NWS

Home | Current Version | Previous Version | Text Only | Print | Product List | Glossary On
Versions: 1 2 3 4 5 6 7 8 9 10 11 12 13 14 15
000
FTUS43 KEAX 012300
TAFSTJ
TAF
KSTJ 012329Z 0200/0224 13007KT P6SM SCT035 BKN050
     FM020130 15006KT P6SM VCTS SCT025CB OVC040
      TEMPO 0202/0205 2SM -TSRA SCT015CB BKN025
     FM020500 15006KT P6SM SCT015 BKN025
     FM021500 18010KT 4SM TSRA SCT025CB OVC035CB
      TEMPO 0217/0221 2SM TSRA OVC025CB=

USA.gov is the U.S. government's official web portal to all federal, state and local government web resources and services.